createdAt,value
2022-11-06T00:00:28.537Z,14.40
2022-11-06T00:02:58.909Z,13.48
2022-11-06T00:05:45.167Z,12.93
2022-11-06T00:08:12.558Z,11.43
2022-11-06T00:10:39.763Z,11.85
2022-11-06T00:13:06.641Z,11.13
2022-11-06T00:15:34.379Z,10.80
2022-11-06T00:18:01.235Z,10.05
2022-11-06T00:20:28.161Z,9.77
2022-11-06T00:22:55.001Z,9.20
2022-11-06T00:25:21.855Z,8.88
2022-11-06T00:27:48.724Z,8.88
2022-11-06T00:30:15.577Z,9.13
2022-11-06T00:32:42.396Z,8.80
2022-11-06T00:35:09.339Z,7.93
2022-11-06T00:37:36.192Z,7.63
2022-11-06T00:40:03.697Z,7.70
2022-11-06T00:42:30.756Z,7.25
2022-11-06T00:44:57.827Z,7.95
2022-11-06T00:47:24.889Z,8.00
2022-11-06T00:49:51.726Z,7.05
2022-11-06T00:52:18.547Z,6.95
2022-11-06T00:54:45.387Z,6.47
2022-11-06T00:57:12.249Z,6.95
2022-11-06T00:59:39.124Z,6.78
2022-11-06T01:02:06.107Z,6.78
2022-11-06T01:04:33.096Z,5.97
2022-11-06T01:06:59.894Z,7.03
2022-11-06T01:09:28.419Z,5.95
2022-11-06T01:12:14.234Z,6.20
2022-11-06T01:14:42.836Z,6.60
2022-11-06T01:17:09.820Z,6.05
2022-11-06T01:19:36.700Z,5.93
2022-11-06T01:22:03.750Z,6.30
2022-11-06T01:24:30.734Z,6.13
2022-11-06T01:27:25.068Z,6.20
2022-11-06T01:29:45.248Z,5.95
2022-11-06T01:32:12.088Z,5.85
2022-11-06T01:34:39.048Z,5.80
2022-11-06T01:37:06.382Z,5.78
2022-11-06T01:39:35.047Z,5.50
2022-11-06T01:42:01.870Z,5.25
2022-11-06T01:44:43.681Z,5.38
2022-11-06T01:47:28.226Z,5.38
2022-11-06T01:49:57.835Z,5.15
2022-11-06T01:52:25.936Z,5.45
2022-11-06T01:54:57.579Z,4.40
2022-11-06T01:57:24.721Z,5.38
2022-11-06T01:59:52.465Z,4.82
2022-11-06T02:02:19.718Z,5.30
2022-11-06T02:04:49.013Z,4.72
2022-11-06T02:07:17.349Z,4.57
2022-11-06T02:09:44.463Z,4.70
2022-11-06T02:13:08.757Z,4.65
2022-11-06T02:15:35.583Z,3.95
2022-11-06T02:18:44.067Z,4.60
2022-11-06T02:21:49.685Z,4.95
2022-11-06T02:24:40.728Z,4.40
2022-11-06T02:27:19.159Z,4.30
2022-11-06T02:30:07.406Z,4.10
2022-11-06T02:32:37.091Z,4.00
2022-11-06T02:35:26.270Z,4.18
2022-11-06T02:37:58.159Z,4.50
2022-11-06T02:40:29.223Z,4.13
2022-11-06T02:42:56.395Z,3.90
2022-11-06T02:45:24.131Z,3.90
2022-11-06T02:47:54.612Z,3.90
2022-11-06T02:50:25.534Z,3.83
2022-11-06T02:52:56.214Z,3.80
2022-11-06T02:55:28.929Z,3.97
2022-11-06T02:58:03.945Z,3.67
2022-11-06T03:00:32.321Z,3.95
2022-11-06T03:03:07.079Z,3.70
2022-11-06T03:05:37.808Z,3.70
2022-11-06T03:08:04.575Z,3.72
2022-11-06T03:10:40.730Z,3.70
2022-11-06T03:13:19.995Z,3.65
2022-11-06T03:16:01.178Z,3.60
2022-11-06T03:18:30.650Z,3.63
2022-11-06T03:21:09.700Z,3.35
2022-11-06T03:23:41.632Z,3.35
2022-11-06T03:26:16.233Z,3.50
2022-11-06T03:28:55.486Z,3.65
2022-11-06T03:31:33.571Z,3.47
2022-11-06T03:34:05.394Z,3.35
2022-11-06T03:36:39.870Z,3.17
2022-11-06T03:39:09.851Z,3.65
2022-11-06T03:41:57.993Z,3.28
2022-11-06T03:44:28.048Z,3.40
2022-11-06T03:47:03.612Z,2.90
2022-11-06T03:49:36.143Z,3.10
2022-11-06T03:52:11.101Z,3.22
2022-11-06T03:54:47.153Z,3.15
2022-11-06T03:57:29.342Z,3.03
2022-11-06T03:59:59.446Z,3.20
2022-11-06T04:02:29.026Z,2.88
2022-11-06T04:04:59.600Z,2.97
2022-11-06T04:07:30.568Z,2.92
2022-11-06T04:10:19.287Z,3.22
2022-11-06T04:15:39.473Z,3.15
2022-11-06T04:18:14.292Z,2.53
2022-11-06T04:21:09.386Z,2.90
2022-11-06T04:24:08.492Z,2.75
2022-11-06T04:26:42.998Z,2.97
2022-11-06T04:29:21.870Z,2.35
2022-11-06T04:32:05.122Z,2.70
2022-11-06T04:37:33.375Z,2.63
2022-11-06T04:40:14.048Z,2.70
2022-11-06T04:42:50.822Z,2.70
2022-11-06T04:45:25.000Z,2.85
2022-11-06T04:47:52.828Z,2.78
2022-11-06T04:50:21.491Z,2.45
2022-11-06T04:52:49.070Z,2.25
2022-11-06T04:55:16.069Z,2.60
2022-11-06T04:57:42.928Z,2.83
2022-11-06T05:00:16.855Z,2.13
2022-11-06T05:02:43.726Z,2.83
2022-11-06T05:05:10.553Z,2.30
2022-11-06T05:07:37.431Z,2.28
2022-11-06T05:10:04.933Z,2.53
2022-11-06T05:12:31.734Z,2.13
2022-11-06T05:14:58.633Z,2.20
2022-11-06T05:17:25.434Z,2.17
2022-11-06T05:19:52.372Z,1.98
2022-11-06T05:22:37.696Z,2.28
2022-11-06T05:25:04.794Z,2.35
2022-11-06T05:27:31.619Z,2.28
2022-11-06T05:29:58.462Z,2.33
2022-11-06T05:32:25.368Z,2.03
2022-11-06T05:34:52.177Z,1.83
2022-11-06T05:37:19.008Z,2.45
2022-11-06T05:39:45.841Z,2.00
2022-11-06T05:42:12.894Z,2.20
2022-11-06T05:44:39.762Z,2.08
2022-11-06T05:47:06.634Z,2.00
2022-11-06T05:49:33.447Z,2.08
2022-11-06T05:52:00.286Z,1.70
2022-11-06T05:54:27.110Z,1.90
2022-11-06T05:56:53.952Z,2.15
2022-11-06T05:59:20.752Z,1.70
2022-11-06T06:01:47.696Z,2.10
2022-11-06T06:04:14.669Z,2.08
2022-11-06T06:06:41.731Z,1.52
2022-11-06T06:09:08.617Z,1.77
2022-11-06T06:11:35.640Z,1.80
2022-11-06T06:14:02.542Z,1.80
2022-11-06T06:16:29.807Z,2.10
2022-11-06T06:18:56.772Z,1.80
2022-11-06T06:21:23.661Z,1.80
2022-11-06T06:23:50.492Z,1.83
2022-11-06T06:26:17.620Z,1.88
2022-11-06T06:28:44.582Z,1.83
2022-11-06T06:31:11.814Z,2.00
2022-11-06T06:33:38.673Z,1.95
2022-11-06T06:36:06.732Z,1.80
2022-11-06T06:38:33.843Z,1.55
2022-11-06T06:41:02.618Z,2.30
2022-11-06T06:43:29.430Z,1.63
2022-11-06T06:46:00.579Z,1.42
2022-11-06T06:48:27.973Z,1.70
2022-11-06T06:50:58.908Z,1.58
2022-11-06T06:53:25.876Z,1.63
2022-11-06T06:55:53.104Z,1.70
2022-11-06T06:58:20.709Z,1.95
2022-11-06T07:00:47.929Z,1.55
2022-11-06T07:03:14.875Z,1.80
2022-11-06T07:05:41.776Z,1.40
2022-11-06T07:08:08.623Z,1.83
2022-11-06T07:10:35.730Z,1.83
2022-11-06T07:13:05.885Z,1.50
2022-11-06T07:15:33.269Z,1.60
2022-11-06T07:18:04.685Z,1.60
2022-11-06T07:20:32.178Z,2.17
2022-11-06T07:22:58.996Z,1.40
2022-11-06T07:25:26.363Z,1.60
2022-11-06T07:27:53.152Z,1.25
2022-11-06T07:30:20.003Z,1.55
2022-11-06T07:32:46.820Z,1.42
2022-11-06T07:35:13.634Z,1.25
2022-11-06T07:37:40.470Z,1.48
2022-11-06T07:40:08.750Z,1.40
2022-11-06T07:42:40.692Z,1.50
2022-11-06T07:45:10.124Z,1.40
2022-11-06T07:47:37.003Z,1.30
2022-11-06T07:52:33.800Z,1.17
2022-11-06T07:55:00.697Z,1.50
2022-11-06T07:57:27.746Z,1.17
2022-11-06T07:59:54.590Z,1.77
2022-11-06T08:02:21.497Z,1.45
2022-11-06T08:04:48.410Z,1.33
2022-11-06T08:07:15.269Z,1.35
2022-11-06T08:09:42.091Z,1.48
2022-11-06T08:12:09.116Z,1.42
2022-11-06T08:14:41.069Z,1.40
2022-11-06T08:17:08.625Z,1.30
2022-11-06T08:19:35.502Z,1.38
2022-11-06T08:22:02.404Z,15.63
2022-11-06T08:24:29.422Z,35.92
2022-11-06T08:26:56.284Z,29.58
2022-11-06T08:29:23.082Z,26.08
2022-11-06T08:31:49.868Z,23.20
2022-11-06T08:34:16.727Z,20.15
2022-11-06T08:36:49.278Z,16.13
2022-11-06T08:39:16.808Z,14.95
2022-11-06T08:41:45.117Z,13.60
2022-11-06T08:44:11.993Z,12.18
2022-11-06T08:46:38.816Z,10.68
2022-11-06T08:49:05.618Z,10.20
2022-11-06T08:51:32.440Z,9.73
2022-11-06T08:53:59.619Z,8.85
2022-11-06T08:56:26.536Z,8.75
2022-11-06T08:58:55.686Z,8.88
2022-11-06T09:01:24.249Z,7.70
2022-11-06T09:03:51.263Z,7.97
2022-11-06T09:06:18.282Z,7.78
2022-11-06T09:08:45.159Z,7.18
2022-11-06T09:11:13.068Z,7.05
2022-11-06T09:13:39.957Z,6.55
2022-11-06T09:16:10.162Z,6.40
2022-11-06T09:18:41.305Z,29.58
2022-11-06T09:21:08.887Z,28.52
2022-11-06T09:23:36.066Z,24.42
2022-11-06T09:26:02.924Z,22.13
2022-11-06T09:28:29.760Z,19.92
2022-11-06T09:30:56.556Z,17.52
2022-11-06T09:33:23.417Z,14.35
2022-11-06T09:35:50.353Z,14.73
2022-11-06T09:38:17.314Z,35.78
2022-11-06T09:40:48.254Z,42.33
2022-11-06T09:43:43.231Z,36.33
2022-11-06T09:46:25.969Z,31.77
2022-11-06T09:49:00.265Z,28.42
2022-11-06T09:51:46.037Z,24.88
2022-11-06T09:54:26.502Z,21.67
2022-11-06T09:57:00.813Z,21.63
2022-11-06T09:59:28.015Z,20.10
2022-11-06T10:01:56.899Z,61.85
2022-11-06T10:04:45.936Z,78.05
2022-11-06T10:07:31.800Z,65.07
2022-11-06T10:10:00.374Z,56.00
2022-11-06T10:12:54.268Z,48.92
2022-11-06T10:15:30.271Z,45.55
2022-11-06T10:18:50.653Z,41.22
2022-11-06T10:21:20.347Z,36.42
2022-11-06T10:23:57.790Z,35.05
2022-11-06T10:26:37.202Z,33.67
2022-11-06T10:29:20.958Z,27.63
2022-11-06T10:32:15.607Z,25.73
2022-11-06T10:34:45.338Z,23.92
2022-11-06T10:39:41.249Z,23.67
2022-11-06T10:42:16.307Z,22.63
2022-11-06T10:44:55.086Z,22.48
2022-11-06T10:47:23.826Z,21.35
2022-11-06T10:49:59.238Z,21.25
2022-11-06T10:52:35.815Z,29.42
2022-11-06T10:55:47.664Z,40.22
2022-11-06T10:58:17.589Z,37.78
2022-11-06T11:00:44.763Z,31.65
2022-11-06T11:05:41.007Z,30.13
2022-11-06T11:08:30.713Z,27.33
2022-11-06T11:11:15.550Z,26.67
2022-11-06T11:13:50.903Z,24.38
2022-11-06T11:16:23.859Z,23.95
2022-11-06T11:18:51.647Z,22.67
2022-11-06T11:21:18.399Z,21.75
2022-11-06T11:23:46.920Z,21.67
2022-11-06T11:26:29.283Z,20.73
2022-11-06T11:29:01.289Z,19.90
2022-11-06T11:31:30.922Z,19.40
2022-11-06T11:34:03.914Z,18.35
2022-11-06T11:36:50.777Z,35.40
2022-11-06T11:39:18.896Z,40.83
2022-11-06T11:41:45.769Z,38.45
2022-11-06T11:44:17.276Z,37.42
2022-11-06T11:46:53.593Z,34.42
2022-11-06T11:49:30.907Z,31.88
2022-11-06T11:52:02.742Z,31.48
2022-11-06T11:54:32.663Z,25.88
2022-11-06T11:57:07.598Z,23.98
2022-11-06T11:59:56.435Z,22.92
2022-11-06T12:02:46.616Z,21.65
2022-11-06T12:05:43.148Z,21.10
2022-11-06T12:08:23.751Z,19.38
2022-11-06T12:10:50.785Z,19.08
2022-11-06T12:13:22.615Z,17.98
2022-11-06T12:16:01.195Z,16.88
2022-11-06T12:18:31.919Z,16.75
2022-11-06T12:21:08.999Z,16.08
2022-11-06T12:23:57.281Z,15.70
2022-11-06T12:26:48.803Z,14.77
2022-11-06T12:29:28.230Z,14.05
2022-11-06T12:32:06.697Z,13.75
2022-11-06T12:34:34.485Z,13.85
2022-11-06T12:37:17.374Z,13.40
2022-11-06T12:39:47.299Z,11.60
2022-11-06T12:42:15.450Z,12.18
2022-11-06T12:44:42.293Z,11.90
2022-11-06T12:47:26.309Z,11.90
2022-11-06T12:50:11.615Z,12.07
2022-11-06T12:52:50.284Z,11.30
2022-11-06T12:55:29.311Z,11.98
2022-11-06T12:58:06.135Z,10.98
2022-11-06T13:00:59.786Z,12.07
2022-11-06T13:03:45.244Z,10.70
2022-11-06T13:06:37.209Z,11.80
2022-11-06T13:09:18.870Z,11.10
2022-11-06T13:12:06.878Z,11.02
2022-11-06T13:14:47.068Z,10.43
2022-11-06T13:17:35.501Z,11.68
2022-11-06T13:20:21.300Z,10.05
2022-11-06T13:23:08.231Z,10.35
2022-11-06T13:26:03.645Z,9.32
2022-11-06T13:29:04.050Z,9.27
2022-11-06T13:31:41.586Z,10.27
2022-11-06T13:34:30.686Z,9.48
2022-11-06T13:36:58.038Z,9.30
2022-11-06T13:42:26.223Z,35.67
2022-11-06T13:44:53.891Z,32.03
2022-11-06T13:47:30.740Z,30.77
2022-11-06T13:50:47.154Z,29.67
2022-11-06T13:53:34.118Z,27.30
2022-11-06T13:56:07.196Z,26.95
2022-11-06T13:58:55.908Z,25.40
2022-11-06T14:01:28.979Z,24.10
2022-11-06T14:04:12.394Z,22.83
2022-11-06T14:06:40.066Z,21.60
2022-11-06T14:09:10.925Z,19.92
2022-11-06T14:11:40.374Z,19.23
2022-11-06T14:14:12.537Z,18.45
2022-11-06T14:16:41.165Z,18.48
2022-11-06T14:19:21.410Z,17.90
2022-11-06T14:21:58.433Z,17.00
2022-11-06T14:24:43.495Z,16.30
2022-11-06T14:27:13.405Z,14.70
2022-11-06T14:29:40.171Z,14.13
2022-11-06T14:32:21.510Z,16.90
2022-11-06T14:34:48.671Z,18.50
2022-11-06T14:37:18.242Z,17.60
2022-11-06T14:39:57.004Z,16.60
2022-11-06T14:42:27.020Z,15.15
2022-11-06T14:44:57.707Z,14.70
2022-11-06T14:47:50.725Z,13.18
2022-11-06T14:50:32.681Z,12.40
2022-11-06T14:53:33.077Z,12.60
2022-11-06T14:56:05.730Z,11.30
2022-11-06T14:59:00.651Z,11.60
2022-11-06T15:01:30.497Z,10.50
2022-11-06T15:03:57.372Z,35.55
2022-11-06T15:06:32.817Z,43.15
2022-11-06T15:09:10.932Z,44.00
2022-11-06T15:11:47.708Z,38.65
2022-11-06T15:14:14.932Z,35.00
2022-11-06T15:16:51.926Z,34.00
2022-11-06T15:19:44.397Z,32.40
2022-11-06T15:22:38.422Z,27.05
2022-11-06T15:25:20.948Z,28.08
2022-11-06T15:28:05.081Z,24.60
2022-11-06T15:30:40.564Z,22.92
2022-11-06T15:33:12.698Z,21.00
2022-11-06T15:38:14.927Z,19.65
2022-11-06T15:40:42.993Z,18.85
2022-11-06T15:43:25.898Z,18.25
2022-11-06T15:46:19.311Z,16.80
2022-11-06T15:48:46.350Z,17.58
2022-11-06T15:51:25.257Z,16.38
2022-11-06T15:53:52.646Z,14.57
2022-11-06T15:56:24.172Z,15.05
2022-11-06T15:59:14.749Z,14.65
2022-11-06T16:01:42.088Z,13.68
2022-11-06T16:04:17.492Z,12.88
2022-11-06T16:06:45.065Z,12.10
2022-11-06T16:09:19.416Z,11.95
2022-11-06T16:11:48.138Z,12.18
2022-11-06T16:14:15.622Z,12.05
2022-11-06T16:16:45.581Z,11.40
2022-11-06T16:19:34.328Z,10.80
2022-11-06T16:22:07.615Z,11.48
2022-11-06T16:24:55.677Z,11.00
2022-11-06T16:27:23.668Z,10.80
2022-11-06T16:29:58.520Z,10.40
2022-11-06T16:32:27.860Z,9.98
2022-11-06T16:34:55.373Z,9.38
2022-11-06T16:37:36.152Z,10.05
2022-11-06T16:40:03.158Z,8.82
2022-11-06T16:42:38.964Z,9.32
2022-11-06T16:45:08.582Z,9.18
2022-11-06T16:47:36.016Z,8.20
2022-11-06T16:50:05.990Z,8.70
2022-11-06T16:52:39.026Z,8.55
2022-11-06T16:55:07.137Z,8.57
2022-11-06T16:57:46.184Z,8.27
2022-11-06T17:00:22.006Z,8.38
2022-11-06T17:02:48.992Z,7.88
2022-11-06T17:05:18.433Z,7.43
2022-11-06T17:07:46.207Z,6.85
2022-11-06T17:10:34.981Z,7.05
2022-11-06T17:13:29.086Z,7.63
2022-11-06T17:16:04.347Z,7.30
2022-11-06T17:18:33.623Z,7.50
2022-11-06T17:21:11.466Z,7.22
2022-11-06T17:23:38.528Z,6.80
2022-11-06T17:26:25.757Z,6.47
2022-11-06T17:28:52.643Z,6.57
2022-11-06T17:31:20.782Z,6.60
2022-11-06T17:33:48.113Z,13.65
2022-11-06T17:36:25.312Z,13.90
2022-11-06T17:38:53.339Z,12.57
2022-11-06T17:41:32.729Z,12.35
2022-11-06T17:44:08.261Z,11.60
2022-11-06T17:46:37.348Z,10.80
2022-11-06T17:49:04.564Z,10.40
2022-11-06T17:51:50.156Z,9.05
2022-11-06T17:54:18.626Z,8.75
2022-11-06T17:56:45.507Z,8.68
2022-11-06T17:59:13.379Z,9.07
2022-11-06T18:01:40.843Z,10.50
2022-11-06T18:04:07.800Z,11.20
2022-11-06T18:06:34.779Z,14.82
2022-11-06T18:09:06.026Z,15.43
2022-11-06T18:11:33.623Z,27.88
2022-11-06T18:14:00.513Z,22.83
2022-11-06T18:16:29.925Z,25.63
2022-11-06T18:18:57.159Z,23.95
2022-11-06T18:21:24.310Z,22.88
2022-11-06T18:23:51.497Z,21.23
2022-11-06T18:26:21.297Z,21.48
2022-11-06T18:31:15.409Z,22.58
2022-11-06T18:33:42.403Z,21.25
2022-11-06T18:36:10.996Z,21.33
2022-11-06T18:38:38.302Z,19.83
2022-11-06T18:41:09.084Z,20.13
2022-11-06T18:43:36.287Z,20.52
2022-11-06T18:46:11.827Z,19.55
2022-11-06T18:48:39.345Z,18.23
2022-11-06T18:51:07.008Z,17.60
2022-11-06T18:53:33.953Z,16.75
2022-11-06T18:56:00.972Z,18.48
2022-11-06T18:58:28.020Z,17.02
2022-11-06T19:01:00.530Z,15.75
2022-11-06T19:03:28.613Z,16.70
2022-11-06T19:05:55.476Z,15.48
2022-11-06T19:08:22.327Z,15.70
2022-11-06T19:10:49.205Z,16.05
2022-11-06T19:13:17.383Z,15.27
2022-11-06T19:15:45.099Z,13.32
2022-11-06T19:18:12.851Z,13.85
2022-11-06T19:20:41.256Z,13.25
2022-11-06T19:23:08.938Z,13.27
2022-11-06T19:25:35.781Z,12.13
2022-11-06T19:28:03.098Z,12.38
2022-11-06T19:30:29.927Z,12.93
2022-11-06T19:32:56.813Z,11.32
2022-11-06T19:35:23.689Z,10.85
2022-11-06T19:37:50.769Z,12.15
2022-11-06T19:40:17.632Z,14.32
2022-11-06T19:42:44.452Z,12.85
2022-11-06T19:45:11.327Z,12.80
2022-11-06T19:47:39.312Z,12.32
2022-11-06T19:50:06.530Z,12.23
2022-11-06T19:52:42.552Z,11.82
2022-11-06T19:55:26.057Z,10.43
2022-11-06T19:57:54.963Z,10.95
2022-11-06T20:00:21.846Z,10.85
2022-11-06T20:02:50.027Z,9.93
2022-11-06T20:05:17.030Z,9.57
2022-11-06T20:07:43.886Z,9.43
2022-11-06T20:10:11.083Z,8.55
2022-11-06T20:12:38.068Z,8.80
2022-11-06T20:15:05.558Z,9.07
2022-11-06T20:17:42.794Z,8.57
2022-11-06T20:20:10.496Z,8.55
2022-11-06T20:22:37.359Z,7.90
2022-11-06T20:25:04.468Z,8.45
2022-11-06T20:27:31.479Z,8.32
2022-11-06T20:29:58.350Z,8.40
2022-11-06T20:32:33.826Z,8.35
2022-11-06T20:35:01.482Z,7.20
2022-11-06T20:37:28.698Z,7.40
2022-11-06T20:39:59.034Z,7.50
2022-11-06T20:42:26.289Z,7.50
2022-11-06T20:44:53.107Z,7.65
2022-11-06T20:47:20.027Z,6.85
2022-11-06T20:49:46.894Z,7.03
2022-11-06T20:52:14.994Z,7.20
2022-11-06T20:54:46.666Z,6.75
2022-11-06T20:57:15.760Z,6.80
2022-11-06T20:59:42.893Z,6.30
2022-11-06T21:02:13.024Z,6.72
2022-11-06T21:04:43.358Z,6.63
2022-11-06T21:07:10.266Z,6.47
2022-11-06T21:09:37.617Z,6.43
2022-11-06T21:12:04.957Z,6.65
2022-11-06T21:14:32.838Z,6.45
2022-11-06T21:17:06.174Z,5.95
2022-11-06T21:19:36.623Z,8.63
2022-11-06T21:22:03.676Z,16.20
2022-11-06T21:24:35.707Z,16.08
2022-11-06T21:27:02.541Z,14.65
2022-11-06T21:29:29.509Z,12.98
2022-11-06T21:32:02.231Z,11.60
2022-11-06T21:34:31.868Z,11.90
2022-11-06T21:37:08.008Z,10.73
2022-11-06T21:39:43.775Z,10.80
2022-11-06T21:42:13.958Z,9.43
2022-11-06T21:44:40.893Z,8.85
2022-11-06T21:47:07.730Z,8.68
2022-11-06T21:49:34.530Z,7.70
2022-11-06T21:52:25.084Z,8.32
2022-11-06T21:55:16.818Z,7.50
2022-11-06T21:57:43.678Z,7.43
2022-11-06T22:00:14.261Z,7.68
2022-11-06T22:02:41.628Z,7.50
2022-11-06T22:05:09.050Z,6.72
2022-11-06T22:07:35.890Z,6.00
2022-11-06T22:10:02.840Z,6.47
2022-11-06T22:12:29.673Z,6.88
2022-11-06T22:14:56.516Z,6.18
2022-11-06T22:17:23.375Z,6.30
2022-11-06T22:19:50.231Z,5.93
2022-11-06T22:22:17.084Z,5.97
2022-11-06T22:24:44.035Z,6.15
2022-11-06T22:27:10.855Z,5.85
2022-11-06T22:29:37.664Z,5.55
2022-11-06T22:32:04.752Z,5.25
2022-11-06T22:34:31.580Z,4.88
2022-11-06T22:36:58.387Z,5.57
2022-11-06T22:39:25.194Z,21.67
2022-11-06T22:41:52.814Z,25.08
2022-11-06T22:44:19.795Z,21.67
2022-11-06T22:46:46.978Z,19.15
2022-11-06T22:49:13.965Z,17.63
2022-11-06T22:51:40.795Z,16.08
2022-11-06T22:54:07.652Z,15.27
2022-11-06T22:56:34.554Z,14.25
2022-11-06T22:59:04.024Z,13.38
2022-11-06T23:01:34.929Z,11.55
2022-11-06T23:04:08.393Z,11.27
2022-11-06T23:06:35.472Z,10.88
2022-11-06T23:09:02.521Z,10.43
2022-11-06T23:11:29.811Z,9.52
2022-11-06T23:13:57.537Z,8.88
2022-11-06T23:16:51.961Z,7.97
2022-11-06T23:19:20.685Z,7.85
2022-11-06T23:21:47.839Z,7.03
2022-11-06T23:24:14.819Z,7.35
2022-11-06T23:26:43.717Z,6.57
2022-11-06T23:29:10.781Z,6.70
2022-11-06T23:31:37.655Z,7.70
2022-11-06T23:34:04.812Z,6.10
2022-11-06T23:36:31.709Z,6.18
2022-11-06T23:38:58.572Z,6.18
2022-11-06T23:41:43.609Z,5.95
2022-11-06T23:44:30.410Z,5.47
2022-11-06T23:46:57.987Z,5.78
2022-11-06T23:49:24.954Z,5.88
2022-11-06T23:51:51.790Z,5.63
2022-11-06T23:54:18.606Z,5.75
2022-11-06T23:56:45.397Z,5.47
2022-11-06T23:59:12.829Z,5.38
